Terminal Aerodrome Forecast
Issued by NWS

Home | Current Version | Previous Version | Text Only | Print | Product List | Glossary On
Versions: 1 2 3 4 5 6 7 8 9 10 11 12
000
FTUS45 KGGW 261122
TAFGDV
TAF
KGDV 261122Z 2612/2712 06004KT P6SM SKC
     FM261800 15013KT P6SM SKC
     FM270800 16011KT P6SM SCT190 WS020/18040KT=

USA.gov is the U.S. government's official web portal to all federal, state and local government web resources and services.